createdAt,value
2022-08-21T00:01:48.184Z,1.92
2022-08-21T00:04:22.194Z,1.95
2022-08-21T00:06:53.133Z,2.28
2022-08-21T00:09:22.164Z,2.60
2022-08-21T00:11:51.864Z,2.28
2022-08-21T00:14:20.331Z,2.08
2022-08-21T00:16:49.148Z,1.98
2022-08-21T00:19:17.436Z,2.15
2022-08-21T00:21:45.808Z,2.22
2022-08-21T00:24:14.137Z,2.25
2022-08-21T00:26:44.355Z,1.70
2022-08-21T00:29:14.492Z,1.83
2022-08-21T00:31:42.986Z,1.88
2022-08-21T00:34:11.404Z,2.38
2022-08-21T00:36:39.983Z,1.90
2022-08-21T00:39:09.083Z,1.73
2022-08-21T00:41:39.718Z,1.65
2022-08-21T00:44:09.953Z,1.95
2022-08-21T00:46:40.833Z,1.75
2022-08-21T00:49:09.680Z,1.80
2022-08-21T00:51:40.830Z,1.80
2022-08-21T00:54:18.901Z,2.20
2022-08-21T00:56:48.381Z,2.00
2022-08-21T00:59:17.826Z,2.30
2022-08-21T01:01:47.680Z,2.00
2022-08-21T01:04:16.667Z,1.90
2022-08-21T01:06:45.005Z,1.40
2022-08-21T01:09:13.663Z,1.73
2022-08-21T01:11:42.964Z,2.22
2022-08-21T01:14:13.067Z,1.90
2022-08-21T01:16:41.869Z,2.40
2022-08-21T01:19:12.211Z,1.65
2022-08-21T01:21:41.910Z,1.75
2022-08-21T01:24:12.617Z,2.00
2022-08-21T01:26:40.949Z,2.03
2022-08-21T01:29:12.086Z,2.03
2022-08-21T01:31:40.355Z,1.92
2022-08-21T01:34:09.280Z,1.95
2022-08-21T01:36:37.762Z,1.88
2022-08-21T01:39:08.062Z,1.70
2022-08-21T01:41:36.444Z,1.85
2022-08-21T01:44:05.165Z,1.80
2022-08-21T01:46:33.690Z,2.20
2022-08-21T01:49:01.969Z,2.00
2022-08-21T01:51:30.310Z,1.80
2022-08-21T01:53:59.592Z,2.22
2022-08-21T01:56:29.659Z,2.40
2022-08-21T01:58:58.425Z,2.00
2022-08-21T02:01:26.972Z,2.65
2022-08-21T02:03:55.599Z,1.80
2022-08-21T02:06:23.944Z,2.10
2022-08-21T02:08:52.327Z,2.17
2022-08-21T02:11:20.874Z,2.00
2022-08-21T02:13:50.702Z,2.30
2022-08-21T02:16:19.351Z,2.22
2022-08-21T02:18:47.893Z,1.90
2022-08-21T02:21:16.355Z,2.17
2022-08-21T02:23:45.001Z,2.03
2022-08-21T02:26:13.823Z,2.30
2022-08-21T02:28:42.840Z,2.38
2022-08-21T02:31:12.994Z,2.20
2022-08-21T02:33:41.523Z,2.65
2022-08-21T02:36:10.987Z,2.25
2022-08-21T02:38:39.804Z,2.30
2022-08-21T02:41:08.552Z,2.58
2022-08-21T02:43:37.589Z,2.25
2022-08-21T02:46:06.874Z,1.73
2022-08-21T02:48:36.630Z,2.20
2022-08-21T02:51:05.832Z,2.15
2022-08-21T02:53:35.181Z,2.00
2022-08-21T02:56:05.306Z,2.47
2022-08-21T02:58:35.115Z,1.98
2022-08-21T03:01:05.887Z,2.08
2022-08-21T03:03:36.170Z,2.45
2022-08-21T03:06:05.078Z,2.40
2022-08-21T03:08:33.443Z,2.20
2022-08-21T03:11:02.415Z,2.67
2022-08-21T03:13:30.976Z,2.28
2022-08-21T03:15:59.304Z,2.60
2022-08-21T03:18:28.762Z,2.55
2022-08-21T03:20:58.454Z,2.50
2022-08-21T03:23:26.801Z,3.05
2022-08-21T03:26:01.545Z,3.03
2022-08-21T03:28:29.962Z,2.65
2022-08-21T03:30:58.334Z,3.03
2022-08-21T03:33:27.034Z,2.72
2022-08-21T03:36:01.429Z,3.50
2022-08-21T03:38:30.747Z,2.80
2022-08-21T03:40:59.437Z,2.70
2022-08-21T03:43:27.860Z,3.13
2022-08-21T03:45:59.520Z,3.60
2022-08-21T03:48:27.903Z,2.67
2022-08-21T03:50:56.330Z,3.40
2022-08-21T03:53:26.556Z,3.22
2022-08-21T03:55:55.384Z,2.90
2022-08-21T03:58:24.998Z,2.85
2022-08-21T04:00:55.816Z,3.47
2022-08-21T04:03:24.527Z,3.03
2022-08-21T04:05:52.834Z,3.22
2022-08-21T04:08:21.467Z,3.30
2022-08-21T04:10:52.670Z,2.90
2022-08-21T04:13:21.117Z,3.15
2022-08-21T04:15:49.447Z,3.17
2022-08-21T04:18:17.862Z,3.40
2022-08-21T04:20:50.141Z,3.35
2022-08-21T04:23:24.617Z,2.95
2022-08-21T04:25:55.259Z,3.10
2022-08-21T04:28:23.821Z,3.10
2022-08-21T04:30:57.757Z,3.35
2022-08-21T04:33:26.277Z,3.05
2022-08-21T04:35:54.587Z,3.00
2022-08-21T04:38:23.363Z,3.10
2022-08-21T04:40:52.457Z,3.08
2022-08-21T04:43:24.264Z,3.33
2022-08-21T04:45:53.563Z,4.00
2022-08-21T04:48:22.959Z,3.70
2022-08-21T04:50:53.051Z,2.92
2022-08-21T04:53:23.419Z,3.40
2022-08-21T04:55:52.052Z,3.90
2022-08-21T04:58:23.231Z,4.15
2022-08-21T05:00:51.493Z,3.53
2022-08-21T05:03:20.308Z,3.47
2022-08-21T05:05:48.547Z,3.90
2022-08-21T05:08:18.596Z,4.00
2022-08-21T05:10:46.855Z,3.70
2022-08-21T05:13:15.595Z,4.10
2022-08-21T05:15:45.181Z,4.00
2022-08-21T05:18:13.551Z,3.78
2022-08-21T05:20:41.975Z,3.50
2022-08-21T05:23:10.583Z,3.75
2022-08-21T05:25:39.008Z,3.53
2022-08-21T05:28:08.006Z,3.67
2022-08-21T05:30:36.754Z,3.72
2022-08-21T05:33:07.223Z,3.28
2022-08-21T05:35:35.837Z,4.00
2022-08-21T05:38:04.836Z,3.40
2022-08-21T05:40:33.217Z,4.35
2022-08-21T05:43:02.014Z,3.95
2022-08-21T05:45:43.452Z,3.70
2022-08-21T05:48:14.987Z,3.70
2022-08-21T05:50:43.594Z,4.13
2022-08-21T05:53:12.060Z,4.28
2022-08-21T05:55:45.183Z,3.60
2022-08-21T05:58:14.937Z,4.47
2022-08-21T06:00:43.285Z,3.83
2022-08-21T06:03:18.674Z,3.38
2022-08-21T06:05:47.168Z,3.80
2022-08-21T06:08:15.630Z,4.35
2022-08-21T06:10:44.338Z,3.25
2022-08-21T06:13:13.389Z,3.72
2022-08-21T06:15:41.601Z,4.28
2022-08-21T06:18:09.925Z,3.47
2022-08-21T06:20:40.161Z,3.63
2022-08-21T06:23:08.536Z,3.40
2022-08-21T06:25:36.813Z,3.35
2022-08-21T06:28:05.640Z,3.60
2022-08-21T06:30:34.106Z,3.63
2022-08-21T06:33:02.544Z,3.88
2022-08-21T06:35:31.331Z,3.75
2022-08-21T06:38:01.046Z,3.15
2022-08-21T06:40:30.166Z,3.83
2022-08-21T06:42:59.375Z,3.83
2022-08-21T06:45:32.304Z,3.47
2022-08-21T06:48:00.946Z,3.78
2022-08-21T06:50:29.342Z,3.67
2022-08-21T06:53:05.945Z,3.70
2022-08-21T06:55:34.615Z,3.30
2022-08-21T06:58:02.893Z,3.60
2022-08-21T07:00:31.316Z,3.30
2022-08-21T07:02:59.901Z,3.33
2022-08-21T07:05:28.697Z,3.10
2022-08-21T07:07:57.859Z,2.60
2022-08-21T07:10:28.219Z,3.42
2022-08-21T07:13:01.057Z,3.30
2022-08-21T07:15:30.783Z,3.42
2022-08-21T07:17:59.575Z,2.85
2022-08-21T07:20:28.562Z,3.45
2022-08-21T07:22:57.264Z,3.00
2022-08-21T07:25:27.278Z,3.15
2022-08-21T07:27:55.920Z,3.25
2022-08-21T07:30:24.977Z,3.22
2022-08-21T07:32:53.588Z,2.95
2022-08-21T07:35:22.423Z,2.63
2022-08-21T07:37:50.885Z,2.70
2022-08-21T07:40:19.590Z,2.90
2022-08-21T07:42:51.071Z,3.25
2022-08-21T07:45:19.935Z,2.28
2022-08-21T07:47:48.341Z,2.47
2022-08-21T07:50:16.782Z,2.28
2022-08-21T07:52:45.506Z,2.50
2022-08-21T07:55:14.828Z,2.65
2022-08-21T07:57:43.148Z,2.50
2022-08-21T08:00:15.072Z,2.58
2022-08-21T08:02:44.062Z,3.03
2022-08-21T08:05:13.132Z,2.67
2022-08-21T08:07:41.948Z,2.60
2022-08-21T08:10:11.494Z,2.28
2022-08-21T08:12:40.497Z,2.67
2022-08-21T08:15:10.310Z,2.78
2022-08-21T08:17:39.968Z,2.63
2022-08-21T08:20:09.065Z,2.40
2022-08-21T08:22:38.388Z,2.17
2022-08-21T08:25:09.469Z,2.70
2022-08-21T08:27:38.432Z,2.20
2022-08-21T08:30:07.532Z,1.83
2022-08-21T08:32:35.960Z,2.40
2022-08-21T08:35:06.141Z,2.50
2022-08-21T08:37:35.093Z,2.05
2022-08-21T08:40:05.420Z,3.20
2022-08-21T08:42:35.417Z,2.53
2022-08-21T08:45:05.919Z,1.67
2022-08-21T08:47:35.735Z,1.50
2022-08-21T08:50:06.936Z,2.28
2022-08-21T08:52:36.812Z,1.70
2022-08-21T08:55:06.679Z,2.00
2022-08-21T08:57:35.633Z,1.90
2022-08-21T09:00:06.444Z,1.88
2022-08-21T09:02:36.596Z,1.83
2022-08-21T09:05:06.639Z,1.52
2022-08-21T09:07:39.236Z,1.50
2022-08-21T09:10:13.084Z,1.90
2022-08-21T09:12:45.533Z,1.50
2022-08-21T09:15:19.452Z,2.45
2022-08-21T09:17:55.295Z,1.50
2022-08-21T09:20:28.079Z,1.20
2022-08-21T09:23:02.588Z,2.08
2022-08-21T09:25:32.568Z,1.50
2022-08-21T09:28:01.133Z,1.52
2022-08-21T09:30:31.796Z,1.58
2022-08-21T09:33:00.963Z,1.50
2022-08-21T09:35:30.737Z,2.00
2022-08-21T09:38:00.633Z,1.92
2022-08-21T09:40:36.368Z,1.75
2022-08-21T09:43:06.841Z,1.70
2022-08-21T09:45:36.825Z,2.40
2022-08-21T09:48:11.900Z,2.38
2022-08-21T09:50:42.032Z,1.90
2022-08-21T09:53:18.481Z,1.95
2022-08-21T09:56:08.579Z,2.65
2022-08-21T09:58:38.202Z,1.85
2022-08-21T10:01:07.953Z,1.98
2022-08-21T10:03:36.361Z,1.77
2022-08-21T10:06:09.702Z,1.88
2022-08-21T10:08:39.465Z,1.52
2022-08-21T10:11:08.646Z,2.03
2022-08-21T10:13:46.536Z,3.25
2022-08-21T10:16:24.366Z,1.75
2022-08-21T10:18:59.405Z,1.55
2022-08-21T10:21:32.242Z,2.00
2022-08-21T10:24:11.278Z,1.98
2022-08-21T10:27:02.315Z,2.60
2022-08-21T10:29:41.589Z,2.33
2022-08-21T10:32:25.710Z,1.50
2022-08-21T10:34:56.428Z,1.38
2022-08-21T10:37:34.325Z,1.70
2022-08-21T10:40:08.759Z,1.45
2022-08-21T10:42:40.363Z,1.45
2022-08-21T10:45:14.116Z,1.52
2022-08-21T10:47:45.821Z,1.30
2022-08-21T10:50:20.453Z,2.10
2022-08-21T10:52:59.287Z,7.07
2022-08-21T10:55:30.159Z,1.42
2022-08-21T10:58:00.570Z,1.35
2022-08-21T11:00:30.745Z,1.17
2022-08-21T11:03:01.058Z,1.10
2022-08-21T11:05:32.838Z,1.50
2022-08-21T11:08:06.171Z,1.40
2022-08-21T11:10:37.382Z,1.23
2022-08-21T11:13:14.130Z,1.10
2022-08-21T11:15:46.562Z,1.50
2022-08-21T11:18:21.905Z,1.50
2022-08-21T11:20:55.274Z,6.85
2022-08-21T11:23:26.126Z,1.80
2022-08-21T11:25:56.142Z,1.08
2022-08-21T11:28:27.207Z,1.02
2022-08-21T11:31:00.980Z,2.08
2022-08-21T11:33:36.313Z,1.55
2022-08-21T11:36:08.173Z,1.08
2022-08-21T11:38:43.053Z,1.33
2022-08-21T11:41:15.999Z,1.15
2022-08-21T11:43:45.305Z,1.10
2022-08-21T11:46:21.942Z,0.93
2022-08-21T11:48:55.979Z,1.13
2022-08-21T11:51:27.734Z,1.00
2022-08-21T11:54:01.749Z,1.15
2022-08-21T11:56:32.975Z,1.00
2022-08-21T11:59:04.174Z,0.95
2022-08-21T12:01:35.283Z,1.20
2022-08-21T12:04:04.976Z,1.20
2022-08-21T12:06:36.705Z,1.00
2022-08-21T12:09:07.620Z,1.10
2022-08-21T12:11:48.091Z,1.17
2022-08-21T12:14:17.580Z,1.20
2022-08-21T12:16:47.274Z,1.30
2022-08-21T12:19:16.733Z,1.27
2022-08-21T12:21:51.857Z,1.15
2022-08-21T12:24:23.193Z,1.45
2022-08-21T12:26:57.282Z,1.02
2022-08-21T12:29:26.516Z,1.23
2022-08-21T12:32:00.196Z,1.25
2022-08-21T12:34:33.292Z,1.70
2022-08-21T12:37:03.067Z,1.17
2022-08-21T12:39:34.126Z,1.08
2022-08-21T12:42:03.805Z,1.00
2022-08-21T12:44:40.595Z,1.10
2022-08-21T12:47:15.757Z,1.10
2022-08-21T12:49:51.015Z,0.80
2022-08-21T12:52:22.399Z,1.40
2022-08-21T12:54:52.026Z,1.00
2022-08-21T12:57:22.114Z,1.17
2022-08-21T12:59:57.436Z,1.42
2022-08-21T13:02:27.445Z,1.15
2022-08-21T13:04:57.671Z,1.50
2022-08-21T13:07:29.712Z,1.05
2022-08-21T13:10:00.959Z,2.03
2022-08-21T13:12:32.510Z,1.27
2022-08-21T13:15:03.205Z,1.30
2022-08-21T13:17:33.873Z,1.42
2022-08-21T13:20:03.998Z,1.60
2022-08-21T13:22:34.193Z,1.30
2022-08-21T13:25:07.049Z,1.15
2022-08-21T13:27:36.389Z,1.20
2022-08-21T13:30:09.560Z,1.30
2022-08-21T13:32:39.745Z,1.30
2022-08-21T13:35:26.593Z,1.48
2022-08-21T13:37:55.621Z,1.40
2022-08-21T13:40:26.924Z,1.30
2022-08-21T13:42:55.479Z,1.20
2022-08-21T13:45:28.546Z,1.50
2022-08-21T13:47:57.802Z,1.63
2022-08-21T13:50:27.617Z,1.30
2022-08-21T13:53:01.733Z,1.30
2022-08-21T13:55:38.412Z,1.60
2022-08-21T13:58:08.010Z,1.80
2022-08-21T14:00:38.350Z,1.42
2022-08-21T14:03:08.645Z,1.83
2022-08-21T14:05:38.087Z,1.42
2022-08-21T14:08:09.332Z,2.05
2022-08-21T14:10:43.661Z,1.73
2022-08-21T14:13:25.504Z,1.95
2022-08-21T14:15:57.730Z,1.52
2022-08-21T14:18:26.986Z,1.88
2022-08-21T14:21:06.606Z,1.38
2022-08-21T14:23:34.902Z,1.63
2022-08-21T14:26:05.949Z,1.55
2022-08-21T14:28:35.244Z,1.88
2022-08-21T14:31:14.381Z,2.10
2022-08-21T14:33:42.928Z,1.73
2022-08-21T14:36:11.279Z,1.77
2022-08-21T14:38:40.745Z,1.98
2022-08-21T14:41:17.723Z,1.65
2022-08-21T14:43:46.602Z,1.70
2022-08-21T14:46:15.787Z,1.67
2022-08-21T14:48:44.031Z,1.88
2022-08-21T14:51:12.376Z,1.90
2022-08-21T14:53:40.675Z,1.70
2022-08-21T14:56:09.081Z,1.70
2022-08-21T14:58:39.895Z,1.80
2022-08-21T15:01:09.219Z,1.75
2022-08-21T15:03:37.871Z,2.28
2022-08-21T15:06:07.352Z,2.00
2022-08-21T15:08:35.856Z,1.80
2022-08-21T15:11:15.446Z,1.75
2022-08-21T15:13:48.605Z,1.63
2022-08-21T15:16:16.967Z,1.95
2022-08-21T15:18:45.261Z,1.60
2022-08-21T15:21:13.548Z,1.88
2022-08-21T15:23:43.854Z,1.92
2022-08-21T15:26:12.551Z,2.08
2022-08-21T15:28:40.845Z,1.67
2022-08-21T15:31:10.495Z,1.83
2022-08-21T15:33:38.839Z,2.25
2022-08-21T15:36:07.464Z,2.05
2022-08-21T15:38:35.811Z,1.77
2022-08-21T15:41:05.035Z,1.80
2022-08-21T15:43:36.075Z,1.65
2022-08-21T15:46:06.192Z,1.30
2022-08-21T15:48:35.863Z,1.95
2022-08-21T15:51:04.138Z,1.25
2022-08-21T15:53:32.996Z,1.38
2022-08-21T15:56:03.130Z,1.83
2022-08-21T15:58:31.438Z,1.77
2022-08-21T16:01:01.358Z,2.22
2022-08-21T16:03:30.001Z,4.88
2022-08-21T16:05:59.656Z,1.83
2022-08-21T16:08:27.977Z,1.80
2022-08-21T16:10:57.276Z,1.73
2022-08-21T16:13:27.498Z,2.13
2022-08-21T16:15:56.027Z,2.55
2022-08-21T16:18:26.523Z,2.20
2022-08-21T16:20:54.910Z,1.65
2022-08-21T16:23:24.719Z,1.50
2022-08-21T16:25:53.189Z,1.95
2022-08-21T16:28:22.014Z,2.13
2022-08-21T16:30:51.600Z,1.48
2022-08-21T16:33:23.167Z,1.95
2022-08-21T16:35:51.460Z,2.58
2022-08-21T16:38:19.765Z,1.52
2022-08-21T16:40:49.576Z,1.90
2022-08-21T16:43:18.254Z,1.55
2022-08-21T16:45:46.937Z,1.80
2022-08-21T16:48:15.358Z,2.00
2022-08-21T16:50:47.880Z,1.45
2022-08-21T16:53:18.843Z,1.65
2022-08-21T16:55:49.189Z,2.53
2022-08-21T16:58:19.790Z,1.70
2022-08-21T17:00:48.368Z,1.58
2022-08-21T17:03:21.352Z,2.30
2022-08-21T17:05:49.833Z,1.98
2022-08-21T17:08:18.181Z,1.83
2022-08-21T17:10:49.557Z,2.53
2022-08-21T17:13:19.609Z,1.70
2022-08-21T17:15:47.926Z,1.65
2022-08-21T17:18:18.381Z,1.85
2022-08-21T17:20:47.609Z,2.28
2022-08-21T17:23:16.076Z,2.10
2022-08-21T17:25:46.273Z,1.90
2022-08-21T17:28:15.843Z,1.80
2022-08-21T17:30:46.214Z,1.80
2022-08-21T17:33:15.131Z,2.00
2022-08-21T17:35:45.075Z,1.45
2022-08-21T17:38:14.718Z,1.65
2022-08-21T17:40:43.751Z,1.52
2022-08-21T17:43:13.759Z,1.65
2022-08-21T17:45:42.071Z,1.83
2022-08-21T17:48:11.713Z,1.80
2022-08-21T17:50:40.993Z,1.85
2022-08-21T17:53:09.984Z,1.65
2022-08-21T17:55:38.299Z,1.90
2022-08-21T17:58:06.769Z,2.20
2022-08-21T18:00:36.089Z,2.00
2022-08-21T18:03:05.657Z,1.90
2022-08-21T18:05:35.412Z,2.05
2022-08-21T18:08:05.474Z,2.00
2022-08-21T18:10:34.063Z,1.98
2022-08-21T18:13:05.479Z,1.77
2022-08-21T18:15:34.675Z,1.77
2022-08-21T18:18:03.178Z,1.75
2022-08-21T18:20:31.512Z,1.60
2022-08-21T18:23:01.352Z,1.58
2022-08-21T18:25:29.944Z,2.03
2022-08-21T18:27:58.459Z,2.30
2022-08-21T18:30:26.835Z,1.85
2022-08-21T18:32:56.202Z,1.80
2022-08-21T18:35:24.978Z,1.45
2022-08-21T18:37:53.389Z,1.70
2022-08-21T18:40:23.516Z,1.65
2022-08-21T18:42:54.991Z,2.15
2022-08-21T18:45:24.810Z,2.00
2022-08-21T18:47:54.298Z,1.60
2022-08-21T18:50:24.977Z,1.73
2022-08-21T18:52:55.111Z,1.58
2022-08-21T18:55:24.971Z,1.70
2022-08-21T18:57:53.580Z,1.70
2022-08-21T19:00:23.409Z,2.00
2022-08-21T19:02:53.298Z,1.83
2022-08-21T19:05:23.025Z,2.15
2022-08-21T19:07:52.000Z,1.92
2022-08-21T19:13:12.134Z,2.17
2022-08-21T19:15:41.168Z,2.20
2022-08-21T19:18:12.014Z,2.30
2022-08-21T19:20:42.132Z,2.00
2022-08-21T19:23:12.213Z,2.17
2022-08-21T19:25:41.504Z,1.80
2022-08-21T19:28:13.614Z,1.83
2022-08-21T19:30:45.927Z,1.77
2022-08-21T19:33:23.619Z,1.70
2022-08-21T19:35:52.827Z,2.00
2022-08-21T19:38:21.357Z,1.80
2022-08-21T19:40:50.085Z,2.00
2022-08-21T19:43:23.203Z,2.10
2022-08-21T19:45:52.067Z,1.98
2022-08-21T19:48:20.457Z,1.70
2022-08-21T19:50:49.046Z,1.80
2022-08-21T19:53:19.169Z,1.65
2022-08-21T19:55:48.480Z,2.03
2022-08-21T19:58:24.007Z,1.83
2022-08-21T20:00:52.404Z,2.40
2022-08-21T20:03:21.289Z,2.10
2022-08-21T20:05:49.976Z,2.85
2022-08-21T20:08:20.511Z,4.15
2022-08-21T20:10:49.933Z,3.60
2022-08-21T20:13:22.122Z,4.13
2022-08-21T20:15:50.616Z,3.80
2022-08-21T20:18:19.227Z,3.30
2022-08-21T20:20:55.411Z,2.78
2022-08-21T20:26:14.284Z,2.85
2022-08-21T20:28:43.971Z,2.90
2022-08-21T20:34:00.904Z,2.75
2022-08-21T20:36:29.274Z,2.80
2022-08-21T20:38:57.692Z,2.60
2022-08-21T20:41:30.709Z,2.38
2022-08-21T20:44:01.829Z,3.10
2022-08-21T20:46:33.707Z,3.30
2022-08-21T20:49:02.974Z,2.85
2022-08-21T20:51:33.178Z,2.30
2022-08-21T20:54:07.092Z,2.72
2022-08-21T20:56:39.825Z,2.30
2022-08-21T20:59:16.301Z,2.58
2022-08-21T21:01:47.690Z,2.47
2022-08-21T21:04:22.065Z,2.53
2022-08-21T21:06:54.423Z,2.55
2022-08-21T21:09:32.385Z,2.50
2022-08-21T21:12:02.154Z,2.45
2022-08-21T21:14:35.582Z,2.20
2022-08-21T21:17:06.445Z,2.03
2022-08-21T21:19:39.046Z,2.88
2022-08-21T21:22:10.148Z,2.20
2022-08-21T21:24:40.403Z,2.42
2022-08-21T21:27:12.306Z,2.53
2022-08-21T21:29:44.419Z,2.53
2022-08-21T21:32:17.978Z,2.60
2022-08-21T21:34:51.179Z,3.22
2022-08-21T21:37:25.411Z,2.47
2022-08-21T21:40:05.819Z,2.60
2022-08-21T21:42:38.696Z,2.70
2022-08-21T21:45:18.531Z,2.78
2022-08-21T21:47:56.365Z,2.63
2022-08-21T21:50:34.028Z,2.58
2022-08-21T21:53:12.460Z,2.45
2022-08-21T21:55:46.921Z,2.03
2022-08-21T21:58:27.521Z,2.15
2022-08-21T22:01:01.781Z,2.95
2022-08-21T22:03:33.107Z,2.60
2022-08-21T22:06:04.639Z,2.92
2022-08-21T22:08:40.072Z,3.13
2022-08-21T22:11:28.480Z,2.70
2022-08-21T22:14:03.581Z,3.17
2022-08-21T22:16:35.501Z,3.03
2022-08-21T22:19:06.577Z,2.97
2022-08-21T22:21:36.190Z,2.10
2022-08-21T22:24:08.118Z,2.78
2022-08-21T22:29:42.992Z,2.30
2022-08-21T22:32:13.164Z,2.00
2022-08-21T22:34:42.754Z,2.58
2022-08-21T22:37:12.795Z,2.53
2022-08-21T22:39:43.217Z,3.13
2022-08-21T22:42:14.773Z,2.47
2022-08-21T22:47:42.177Z,2.35
2022-08-21T22:50:18.741Z,2.50
2022-08-21T22:52:48.610Z,2.42
2022-08-21T22:55:24.633Z,2.50
2022-08-21T22:58:04.495Z,2.65
2022-08-21T23:00:49.220Z,2.10
2022-08-21T23:03:23.019Z,2.15
2022-08-21T23:05:51.694Z,2.67
2022-08-21T23:08:24.971Z,2.13
2022-08-21T23:10:58.654Z,2.05
2022-08-21T23:13:29.842Z,2.10
2022-08-21T23:16:03.634Z,2.40
2022-08-21T23:18:43.834Z,2.10
2022-08-21T23:21:16.995Z,2.13
2022-08-21T23:23:53.818Z,2.10
2022-08-21T23:26:28.231Z,2.42
2022-08-21T23:29:07.811Z,2.10
2022-08-21T23:31:41.410Z,2.28
2022-08-21T23:34:20.113Z,2.00
2022-08-21T23:37:48.936Z,2.45
2022-08-21T23:40:27.940Z,1.98
2022-08-21T23:43:03.262Z,2.38
2022-08-21T23:45:36.691Z,2.55
2022-08-21T23:48:09.981Z,2.25
2022-08-21T23:50:45.558Z,2.30
2022-08-21T23:53:19.815Z,2.20
2022-08-21T23:55:55.488Z,1.98
2022-08-21T23:58:30.413Z,2.35
